sensor_id;sensor_type;location;lat;lon;timestamp;pressure;altitude;pressure_sealevel;temperature;humidity
69630;BME280;56857;52.212;5.496;2023-02-18T00:00:54;102219.28;;;9.68;100.00
69630;BME280;56857;52.212;5.496;2023-02-18T00:03:21;102216.47;;;9.69;100.00
69630;BME280;56857;52.212;5.496;2023-02-18T00:05:46;102214.66;;;9.70;100.00
69630;BME280;56857;52.212;5.496;2023-02-18T00:08:12;102214.41;;;9.73;100.00
69630;BME280;56857;52.212;5.496;2023-02-18T00:10:40;102208.28;;;9.72;100.00
69630;BME280;56857;52.212;5.496;2023-02-18T00:13:05;102216.78;;;9.76;100.00
69630;BME280;56857;52.212;5.496;2023-02-18T00:15:31;102215.81;;;9.77;100.00
69630;BME280;56857;52.212;5.496;2023-02-18T00:17:56;102216.69;;;9.78;100.00
69630;BME280;56857;52.212;5.496;2023-02-18T00:20:24;102213.88;;;9.79;100.00
69630;BME280;56857;52.212;5.496;2023-02-18T00:22:55;102223.38;;;9.82;100.00
69630;BME280;56857;52.212;5.496;2023-02-18T00:25:20;102216.84;;;9.86;100.00
69630;BME280;56857;52.212;5.496;2023-02-18T00:27:46;102210.59;;;9.87;100.00
69630;BME280;56857;52.212;5.496;2023-02-18T00:30:12;102204.31;;;9.88;100.00
69630;BME280;56857;52.212;5.496;2023-02-18T00:32:43;102204.44;;;9.86;100.00
69630;BME280;56857;52.212;5.496;2023-02-18T00:35:08;102196.50;;;9.86;100.00
69630;BME280;56857;52.212;5.496;2023-02-18T00:37:38;102204.44;;;9.86;100.00
69630;BME280;56857;52.212;5.496;2023-02-18T00:40:10;102197.22;;;9.88;100.00
69630;BME280;56857;52.212;5.496;2023-02-18T00:42:35;102199.75;;;9.90;100.00
69630;BME280;56857;52.212;5.496;2023-02-18T00:45:01;102198.88;;;9.89;100.00
69630;BME280;56857;52.212;5.496;2023-02-18T00:47:26;102193.59;;;9.89;100.00
69630;BME280;56857;52.212;5.496;2023-02-18T00:49:53;102195.28;;;9.90;100.00
69630;BME280;56857;52.212;5.496;2023-02-18T00:52:18;102190.09;;;9.89;100.00
69630;BME280;56857;52.212;5.496;2023-02-18T00:54:43;102185.91;;;9.86;100.00
69630;BME280;56857;52.212;5.496;2023-02-18T00:57:08;102183.41;;;9.85;100.00
69630;BME280;56857;52.212;5.496;2023-02-18T00:59:35;102182.69;;;9.83;100.00
69630;BME280;56857;52.212;5.496;2023-02-18T01:02:00;102183.78;;;9.80;100.00
69630;BME280;56857;52.212;5.496;2023-02-18T01:04:26;102187.41;;;9.79;100.00
69630;BME280;56857;52.212;5.496;2023-02-18T01:06:53;102181.38;;;9.77;100.00
69630;BME280;56857;52.212;5.496;2023-02-18T01:09:18;102176.25;;;9.75;100.00
69630;BME280;56857;52.212;5.496;2023-02-18T01:11:44;102171.91;;;9.74;100.00
69630;BME280;56857;52.212;5.496;2023-02-18T01:14:09;102179.88;;;9.74;100.00
69630;BME280;56857;52.212;5.496;2023-02-18T01:16:36;102175.41;;;9.75;100.00
69630;BME280;56857;52.212;5.496;2023-02-18T01:19:02;102179.72;;;9.76;100.00
69630;BME280;56857;52.212;5.496;2023-02-18T01:21:27;102175.25;;;9.77;100.00
69630;BME280;56857;52.212;5.496;2023-02-18T01:23:54;102181.53;;;9.75;100.00
69630;BME280;56857;52.212;5.496;2023-02-18T01:26:20;102170.63;;;9.69;100.00
69630;BME280;56857;52.212;5.496;2023-02-18T01:28:47;102168.09;;;9.67;100.00
69630;BME280;56857;52.212;5.496;2023-02-18T01:31:20;102161.97;;;9.67;100.00
69630;BME280;56857;52.212;5.496;2023-02-18T01:33:45;102169.91;;;9.67;100.00
69630;BME280;56857;52.212;5.496;2023-02-18T01:36:17;102176.31;;;9.64;100.00
69630;BME280;56857;52.212;5.496;2023-02-18T01:38:43;102164.63;;;9.67;100.00
69630;BME280;56857;52.212;5.496;2023-02-18T01:41:09;102167.16;;;9.68;100.00
69630;BME280;56857;52.212;5.496;2023-02-18T01:43:37;102162.81;;;9.67;100.00
69630;BME280;56857;52.212;5.496;2023-02-18T01:46:19;102167.25;;;9.67;100.00
69630;BME280;56857;52.212;5.496;2023-02-18T01:49:05;102161.97;;;9.67;100.00
69630;BME280;56857;52.212;5.496;2023-02-18T01:51:59;102161.28;;;9.65;100.00
69630;BME280;56857;52.212;5.496;2023-02-18T01:54:39;102156.94;;;9.64;100.00
69630;BME280;56857;52.212;5.496;2023-02-18T01:57:27;102141.19;;;9.62;100.00
69630;BME280;56857;52.212;5.496;2023-02-18T01:59:57;102135.06;;;9.62;100.00
69630;BME280;56857;52.212;5.496;2023-02-18T02:02:26;102139.38;;;9.63;100.00
69630;BME280;56857;52.212;5.496;2023-02-18T02:04:58;102143.59;;;9.65;100.00
69630;BME280;56857;52.212;5.496;2023-02-18T02:07:25;102142.84;;;9.63;100.00
69630;BME280;56857;52.212;5.496;2023-02-18T02:09:53;102123.03;;;9.58;100.00
69630;BME280;56857;52.212;5.496;2023-02-18T02:20:55;102098.84;;;9.41;100.00
69630;BME280;56857;52.212;5.496;2023-02-18T02:29:50;102075.13;;;9.30;100.00
69630;BME280;56857;52.212;5.496;2023-02-18T02:32:38;102071.88;;;9.26;100.00
69630;BME280;56857;52.212;5.496;2023-02-18T02:35:38;102051.84;;;9.24;100.00
69630;BME280;56857;52.212;5.496;2023-02-18T02:38:36;102050.41;;;9.20;100.00
69630;BME280;56857;52.212;5.496;2023-02-18T02:47:00;102008.59;;;9.14;100.00
69630;BME280;56857;52.212;5.496;2023-02-18T02:49:52;102010.16;;;9.16;100.00
69630;BME280;56857;52.212;5.496;2023-02-18T02:52:30;102002.34;;;9.15;100.00
69630;BME280;56857;52.212;5.496;2023-02-18T02:54:57;101999.72;;;9.15;100.00
69630;BME280;56857;52.212;5.496;2023-02-18T02:59:54;101992.16;;;9.10;100.00
69630;BME280;56857;52.212;5.496;2023-02-18T03:08:28;101992.72;;;9.14;100.00
69630;BME280;56857;52.212;5.496;2023-02-18T03:11:07;101984.66;;;9.15;100.00
69630;BME280;56857;52.212;5.496;2023-02-18T03:14:16;101983.69;;;9.16;100.00
69630;BME280;56857;52.212;5.496;2023-02-18T03:16:35;101982.44;;;9.20;100.00
69630;BME280;56857;52.212;5.496;2023-02-18T03:22:10;101978.41;;;9.16;100.00
69630;BME280;56857;52.212;5.496;2023-02-18T03:24:51;101971.19;;;9.18;100.00
69630;BME280;56857;52.212;5.496;2023-02-18T03:27:34;101948.91;;;9.21;100.00
69630;BME280;56857;52.212;5.496;2023-02-18T03:30:06;101945.41;;;9.20;100.00
69630;BME280;56857;52.212;5.496;2023-02-18T03:32:34;101939.03;;;9.23;100.00
69630;BME280;56857;52.212;5.496;2023-02-18T03:35:12;101937.94;;;9.25;100.00
69630;BME280;56857;52.212;5.496;2023-02-18T03:37:46;101929.00;;;9.26;100.00
69630;BME280;56857;52.212;5.496;2023-02-18T03:40:12;101921.78;;;9.28;100.00
69630;BME280;56857;52.212;5.496;2023-02-18T03:42:41;101925.41;;;9.27;100.00
69630;BME280;56857;52.212;5.496;2023-02-18T03:45:08;101907.72;;;9.28;100.00
69630;BME280;56857;52.212;5.496;2023-02-18T03:47:33;101907.56;;;9.29;100.00
69630;BME280;56857;52.212;5.496;2023-02-18T03:49:58;101906.63;;;9.31;100.00
69630;BME280;56857;52.212;5.496;2023-02-18T03:52:24;101901.19;;;9.32;100.00
69630;BME280;56857;52.212;5.496;2023-02-18T03:54:55;101898.53;;;9.32;100.00
69630;BME280;56857;52.212;5.496;2023-02-18T03:57:28;101895.88;;;9.32;100.00
69630;BME280;56857;52.212;5.496;2023-02-18T03:59:54;101894.94;;;9.33;100.00
69630;BME280;56857;52.212;5.496;2023-02-18T04:02:20;101894.06;;;9.33;100.00
69630;BME280;56857;52.212;5.496;2023-02-18T04:05:04;101880.72;;;9.34;100.00
69630;BME280;56857;52.212;5.496;2023-02-18T04:07:31;101879.88;;;9.34;100.00
69630;BME280;56857;52.212;5.496;2023-02-18T04:10:13;101887.81;;;9.34;100.00
69630;BME280;56857;52.212;5.496;2023-02-18T04:12:40;101887.81;;;9.34;100.00
69630;BME280;56857;52.212;5.496;2023-02-18T04:15:05;101881.56;;;9.35;100.00
69630;BME280;56857;52.212;5.496;2023-02-18T04:17:39;101869.03;;;9.37;100.00
69630;BME280;56857;52.212;5.496;2023-02-18T04:20:12;101866.13;;;9.40;100.00
69630;BME280;56857;52.212;5.496;2023-02-18T04:22:45;101859.00;;;9.40;100.00
69630;BME280;56857;52.212;5.496;2023-02-18T04:25:11;101857.19;;;9.41;100.00
69630;BME280;56857;52.212;5.496;2023-02-18T04:27:37;101846.72;;;9.39;100.00
69630;BME280;56857;52.212;5.496;2023-02-18T04:30:04;101851.06;;;9.40;100.00
69630;BME280;56857;52.212;5.496;2023-02-18T04:32:37;101847.44;;;9.41;100.00
69630;BME280;56857;52.212;5.496;2023-02-18T04:35:04;101862.22;;;9.44;100.00
69630;BME280;56857;52.212;5.496;2023-02-18T04:37:30;101856.91;;;9.44;100.00
69630;BME280;56857;52.212;5.496;2023-02-18T04:39:55;101832.00;;;9.46;100.00
69630;BME280;56857;52.212;5.496;2023-02-18T04:42:22;101839.66;;;9.49;100.00
69630;BME280;56857;52.212;5.496;2023-02-18T04:44:49;101835.91;;;9.52;100.00
69630;BME280;56857;52.212;5.496;2023-02-18T04:47:14;101825.44;;;9.50;100.00
69630;BME280;56857;52.212;5.496;2023-02-18T04:49:39;101824.34;;;9.53;100.00
69630;BME280;56857;52.212;5.496;2023-02-18T04:52:06;101812.91;;;9.52;100.00
69630;BME280;56857;52.212;5.496;2023-02-18T04:54:33;101813.88;;;9.51;100.00
69630;BME280;56857;52.212;5.496;2023-02-18T04:56:59;101821.81;;;9.51;100.00
69630;BME280;56857;52.212;5.496;2023-02-18T04:59:24;101815.56;;;9.52;100.00
69630;BME280;56857;52.212;5.496;2023-02-18T05:01:49;101804.16;;;9.52;100.00
69630;BME280;56857;52.212;5.496;2023-02-18T05:04:16;101815.56;;;9.52;100.00
69630;BME280;56857;52.212;5.496;2023-02-18T05:06:42;101815.28;;;9.56;100.00
69630;BME280;56857;52.212;5.496;2023-02-18T05:09:09;101800.50;;;9.53;100.00
69630;BME280;56857;52.212;5.496;2023-02-18T05:11:35;101809.28;;;9.54;100.00
69630;BME280;56857;52.212;5.496;2023-02-18T05:14:02;101806.63;;;9.54;100.00
69630;BME280;56857;52.212;5.496;2023-02-18T05:16:27;101807.47;;;9.54;100.00
69630;BME280;56857;52.212;5.496;2023-02-18T05:18:52;101796.19;;;9.52;100.00
69630;BME280;56857;52.212;5.496;2023-02-18T05:21:18;101803.00;;;9.55;100.00
69630;BME280;56857;52.212;5.496;2023-02-18T05:23:44;101810.28;;;9.52;100.00
69630;BME280;56857;52.212;5.496;2023-02-18T05:26:09;101801.19;;;9.55;100.00
69630;BME280;56857;52.212;5.496;2023-02-18T05:28:37;101788.81;;;9.56;100.00
69630;BME280;56857;52.212;5.496;2023-02-18T05:31:02;101782.66;;;9.55;100.00
69630;BME280;56857;52.212;5.496;2023-02-18T05:33:28;101780.88;;;9.56;100.00
69630;BME280;56857;52.212;5.496;2023-02-18T05:35:54;101773.88;;;9.55;100.00
69630;BME280;56857;52.212;5.496;2023-02-18T05:38:26;101777.38;;;9.55;100.00
69630;BME280;56857;52.212;5.496;2023-02-18T05:40:51;101761.47;;;9.55;100.00
69630;BME280;56857;52.212;5.496;2023-02-18T05:43:19;101763.31;;;9.55;100.00
69630;BME280;56857;52.212;5.496;2023-02-18T05:45:44;101759.00;;;9.54;100.00
69630;BME280;56857;52.212;5.496;2023-02-18T05:48:10;101750.34;;;9.51;100.00
69630;BME280;56857;52.212;5.496;2023-02-18T05:50:37;101756.34;;;9.54;100.00
69630;BME280;56857;52.212;5.496;2023-02-18T05:53:04;101746.59;;;9.54;100.00
69630;BME280;56857;52.212;5.496;2023-02-18T05:55:30;101757.19;;;9.54;100.00
69630;BME280;56857;52.212;5.496;2023-02-18T05:57:57;101761.47;;;9.55;100.00
69630;BME280;56857;52.212;5.496;2023-02-18T06:00:22;101744.66;;;9.56;100.00
69630;BME280;56857;52.212;5.496;2023-02-18T06:02:48;101760.38;;;9.58;100.00
69630;BME280;56857;52.212;5.496;2023-02-18T06:05:14;101757.59;;;9.59;100.00
69630;BME280;56857;52.212;5.496;2023-02-18T06:07:39;101763.56;;;9.61;100.00
69630;BME280;56857;52.212;5.496;2023-02-18T06:10:06;101772.22;;;9.63;100.00
69630;BME280;56857;52.212;5.496;2023-02-18T06:12:31;101769.44;;;9.65;100.00
69630;BME280;56857;52.212;5.496;2023-02-18T06:15:04;101775.41;;;9.67;100.00
69630;BME280;56857;52.212;5.496;2023-02-18T06:17:30;101768.47;;;9.66;100.00
69630;BME280;56857;52.212;5.496;2023-02-18T06:19:58;101767.47;;;9.67;100.00
69630;BME280;56857;52.212;5.496;2023-02-18T06:22:31;101768.31;;;9.67;100.00
69630;BME280;56857;52.212;5.496;2023-02-18T06:24:57;101760.25;;;9.69;100.00
69630;BME280;56857;52.212;5.496;2023-02-18T06:27:24;101758.31;;;9.71;100.00
69630;BME280;56857;52.212;5.496;2023-02-18T06:29:50;101758.97;;;9.73;100.00
69630;BME280;56857;52.212;5.496;2023-02-18T06:32:29;101762.59;;;9.72;100.00
69630;BME280;56857;52.212;5.496;2023-02-18T06:34:57;101758.84;;;9.74;100.00
69630;BME280;56857;52.212;5.496;2023-02-18T06:37:23;101771.94;;;9.76;100.00
69630;BME280;56857;52.212;5.496;2023-02-18T06:40:00;101772.75;;;9.77;100.00
69630;BME280;56857;52.212;5.496;2023-02-18T06:42:32;101776.25;;;9.77;100.00
69630;BME280;56857;52.212;5.496;2023-02-18T06:44:57;101778.59;;;9.80;100.00
69630;BME280;56857;52.212;5.496;2023-02-18T06:47:24;101782.94;;;9.81;100.00
69630;BME280;56857;52.212;5.496;2023-02-18T06:49:51;101777.66;;;9.81;100.00
69630;BME280;56857;52.212;5.496;2023-02-18T06:52:18;101775.13;;;9.80;100.00
69630;BME280;56857;52.212;5.496;2023-02-18T06:54:52;101757.56;;;9.79;100.00
69630;BME280;56857;52.212;5.496;2023-02-18T06:57:17;101774.28;;;9.79;100.00
69630;BME280;56857;52.212;5.496;2023-02-18T07:00:05;101762.03;;;9.78;100.00
69630;BME280;56857;52.212;5.496;2023-02-18T07:02:37;101757.56;;;9.79;100.00
69630;BME280;56857;52.212;5.496;2023-02-18T07:05:05;101759.41;;;9.78;100.00
69630;BME280;56857;52.212;5.496;2023-02-18T07:07:30;101761.06;;;9.79;100.00
69630;BME280;56857;52.212;5.496;2023-02-18T07:09:56;101754.22;;;9.77;100.00
69630;BME280;56857;52.212;5.496;2023-02-18T07:12:22;101757.16;;;9.73;100.00
69630;BME280;56857;52.212;5.496;2023-02-18T07:14:47;101763.44;;;9.72;100.00
69630;BME280;56857;52.212;5.496;2023-02-18T07:17:19;101759.81;;;9.73;100.00
69630;BME280;56857;52.212;5.496;2023-02-18T07:19:45;101757.16;;;9.73;100.00
69630;BME280;56857;52.212;5.496;2023-02-18T07:22:10;101762.59;;;9.72;100.00
69630;BME280;56857;52.212;5.496;2023-02-18T07:24:37;101750.34;;;9.71;100.00
69630;BME280;56857;52.212;5.496;2023-02-18T07:27:02;101747.00;;;9.69;100.00
69630;BME280;56857;52.212;5.496;2023-02-18T07:29:28;101747.84;;;9.69;100.00
69630;BME280;56857;52.212;5.496;2023-02-18T07:31:54;101751.47;;;9.68;100.00
69630;BME280;56857;52.212;5.496;2023-02-18T07:34:20;101748.00;;;9.68;100.00
69630;BME280;56857;52.212;5.496;2023-02-18T07:36:46;101741.00;;;9.67;100.00
69630;BME280;56857;52.212;5.496;2023-02-18T07:39:13;101735.88;;;9.65;100.00
69630;BME280;56857;52.212;5.496;2023-02-18T07:41:38;101741.16;;;9.65;100.00
69630;BME280;56857;52.212;5.496;2023-02-18T07:44:05;101737.69;;;9.65;100.00
69630;BME280;56857;52.212;5.496;2023-02-18T07:46:30;101735.16;;;9.63;100.00
69630;BME280;56857;52.212;5.496;2023-02-18T07:48:56;101732.50;;;9.63;100.00
69630;BME280;56857;52.212;5.496;2023-02-18T07:51:26;101729.03;;;9.63;100.00
69630;BME280;56857;52.212;5.496;2023-02-18T07:53:51;101743.25;;;9.62;100.00
69630;BME280;56857;52.212;5.496;2023-02-18T07:56:17;101749.50;;;9.61;100.00
69630;BME280;56857;52.212;5.496;2023-02-18T07:58:42;101754.81;;;9.61;100.00
69630;BME280;56857;52.212;5.496;2023-02-18T08:01:10;101751.19;;;9.62;100.00
69630;BME280;56857;52.212;5.496;2023-02-18T08:03:38;101757.31;;;9.62;100.00
69630;BME280;56857;52.212;5.496;2023-02-18T08:06:04;101763.72;;;9.60;100.00
69630;BME280;56857;52.212;5.496;2023-02-18T08:08:31;101764.84;;;9.57;100.00
69630;BME280;56857;52.212;5.496;2023-02-18T08:11:00;101769.16;;;9.58;100.00
69630;BME280;56857;52.212;5.496;2023-02-18T08:13:25;101770.84;;;9.59;100.00
69630;BME280;56857;52.212;5.496;2023-02-18T08:15:56;101763.19;;;9.56;100.00
69630;BME280;56857;52.212;5.496;2023-02-18T08:18:23;101763.72;;;9.60;100.00
69630;BME280;56857;52.212;5.496;2023-02-18T08:20:49;101770.97;;;9.58;100.00
69630;BME280;56857;52.212;5.496;2023-02-18T08:23:15;101764.13;;;9.55;100.00
69630;BME280;56857;52.212;5.496;2023-02-18T08:25:54;101761.78;;;9.52;100.00
69630;BME280;56857;52.212;5.496;2023-02-18T08:28:21;101761.09;;;9.50;100.00
69630;BME280;56857;52.212;5.496;2023-02-18T08:30:52;101775.97;;;9.51;100.00
69630;BME280;56857;52.212;5.496;2023-02-18T08:33:19;101772.38;;;9.52;100.00
69630;BME280;56857;52.212;5.496;2023-02-18T08:35:47;101789.22;;;9.51;100.00
69630;BME280;56857;52.212;5.496;2023-02-18T08:38:13;101784.19;;;9.48;100.00
69630;BME280;56857;52.212;5.496;2023-02-18T08:40:38;101783.38;;;9.47;100.00
69630;BME280;56857;52.212;5.496;2023-02-18T08:43:03;101772.94;;;9.46;100.00
69630;BME280;56857;52.212;5.496;2023-02-18T08:45:28;101771.53;;;9.42;100.00
69630;BME280;56857;52.212;5.496;2023-02-18T08:47:55;101763.84;;;9.39;100.00
69630;BME280;56857;52.212;5.496;2023-02-18T08:50:20;101769.31;;;9.37;100.00
69630;BME280;56857;52.212;5.496;2023-02-18T08:52:46;101760.53;;;9.37;100.00
69630;BME280;56857;52.212;5.496;2023-02-18T08:55:11;101763.19;;;9.37;100.00
69630;BME280;56857;52.212;5.496;2023-02-18T08:57:37;101773.88;;;9.35;100.00
69630;BME280;56857;52.212;5.496;2023-02-18T09:00:03;101767.91;;;9.33;100.00
69630;BME280;56857;52.212;5.496;2023-02-18T09:02:28;101776.97;;;9.31;100.00
69630;BME280;56857;52.212;5.496;2023-02-18T09:04:55;101776.25;;;9.28;100.00
69630;BME280;56857;52.212;5.496;2023-02-18T09:07:20;101785.19;;;9.27;100.00
69630;BME280;56857;52.212;5.496;2023-02-18T09:09:45;101785.44;;;9.24;100.00
69630;BME280;56857;52.212;5.496;2023-02-18T09:12:11;101768.75;;;9.24;100.00
69630;BME280;56857;52.212;5.496;2023-02-18T09:14:37;101776.53;;;9.25;100.00
69630;BME280;56857;52.212;5.496;2023-02-18T09:17:04;101776.69;;;9.24;100.00
69630;BME280;56857;52.212;5.496;2023-02-18T09:19:29;101789.75;;;9.25;100.00
69630;BME280;56857;52.212;5.496;2023-02-18T09:21:56;101787.13;;;9.25;100.00
69630;BME280;56857;52.212;5.496;2023-02-18T09:24:24;101794.06;;;9.26;100.00
69630;BME280;56857;52.212;5.496;2023-02-18T09:26:50;101795.75;;;9.27;100.00
69630;BME280;56857;52.212;5.496;2023-02-18T09:29:16;101788.66;;;9.28;100.00
69630;BME280;56857;52.212;5.496;2023-02-18T09:31:42;101798.25;;;9.29;100.00
69630;BME280;56857;52.212;5.496;2023-02-18T09:34:08;101798.13;;;9.31;100.00
69630;BME280;56857;52.212;5.496;2023-02-18T09:36:33;101800.63;;;9.32;100.00
69630;BME280;56857;52.212;5.496;2023-02-18T09:38:58;101803.97;;;9.34;100.00
69630;BME280;56857;52.212;5.496;2023-02-18T09:41:37;101798.69;;;9.34;100.00
69630;BME280;56857;52.212;5.496;2023-02-18T09:44:10;101798.53;;;9.36;100.00
69630;BME280;56857;52.212;5.496;2023-02-18T09:46:41;101810.09;;;9.35;100.00
69630;BME280;56857;52.212;5.496;2023-02-18T09:49:23;101802.88;;;9.37;100.00
69630;BME280;56857;52.212;5.496;2023-02-18T09:51:53;101809.00;;;9.37;100.00
69630;BME280;56857;52.212;5.496;2023-02-18T09:54:20;101814.84;;;9.41;100.00
69630;BME280;56857;52.212;5.496;2023-02-18T09:56:46;101806.75;;;9.42;100.00
69630;BME280;56857;52.212;5.496;2023-02-18T09:59:17;101813.75;;;9.43;100.00
69630;BME280;56857;52.212;5.496;2023-02-18T10:01:45;101809.00;;;9.47;100.00
69630;BME280;56857;52.212;5.496;2023-02-18T10:06:51;101801.78;;;9.49;100.00
69630;BME280;56857;52.212;5.496;2023-02-18T10:09:37;101808.72;;;9.50;100.00
69630;BME280;56857;52.212;5.496;2023-02-18T10:12:18;101816.25;;;9.55;100.00
69630;BME280;56857;52.212;5.496;2023-02-18T10:14:48;101803.56;;;9.58;100.00
69630;BME280;56857;52.212;5.496;2023-02-18T10:17:16;101824.34;;;9.63;100.00
69630;BME280;56857;52.212;5.496;2023-02-18T10:19:42;101830.06;;;9.68;100.00
69630;BME280;56857;52.212;5.496;2023-02-18T10:22:10;101823.50;;;9.72;100.00
69630;BME280;56857;52.212;5.496;2023-02-18T10:24:43;101821.53;;;9.74;100.00
69630;BME280;56857;52.212;5.496;2023-02-18T10:27:17;101815.13;;;9.77;100.00
69630;BME280;56857;52.212;5.496;2023-02-18T10:29:44;101823.63;;;9.80;100.00
69630;BME280;56857;52.212;5.496;2023-02-18T10:38:14;101838.56;;;9.91;100.00
69630;BME280;56857;52.212;5.496;2023-02-18T10:43:32;101848.16;;;10.02;100.00
69630;BME280;56857;52.212;5.496;2023-02-18T10:51:50;101837.09;;;10.26;100.00
69630;BME280;56857;52.212;5.496;2023-02-18T10:54:17;101843.78;;;10.39;100.00
69630;BME280;56857;52.212;5.496;2023-02-18T10:56:49;101836.06;;;10.56;100.00
69630;BME280;56857;52.212;5.496;2023-02-18T10:59:24;101834.03;;;10.77;100.00
69630;BME280;56857;52.212;5.496;2023-02-18T11:02:11;101829.63;;;10.96;100.00
69630;BME280;56857;52.212;5.496;2023-02-18T11:04:41;101835.13;;;11.12;100.00
69630;BME280;56857;52.212;5.496;2023-02-18T11:07:14;101844.25;;;11.27;100.00
69630;BME280;56857;52.212;5.496;2023-02-18T11:09:47;101848.81;;;11.35;100.00
69630;BME280;56857;52.212;5.496;2023-02-18T11:12:14;101839.41;;;11.41;100.00
69630;BME280;56857;52.212;5.496;2023-02-18T11:14:47;101846.09;;;11.45;100.00
69630;BME280;56857;52.212;5.496;2023-02-18T11:19:59;101844.22;;;11.73;100.00
69630;BME280;56857;52.212;5.496;2023-02-18T11:22:29;101848.44;;;11.83;100.00
69630;BME280;56857;52.212;5.496;2023-02-18T11:24:57;101845.22;;;11.90;100.00
69630;BME280;56857;52.212;5.496;2023-02-18T11:27:41;101843.09;;;11.93;100.00
69630;BME280;56857;52.212;5.496;2023-02-18T11:30:37;101844.53;;;11.88;100.00
69630;BME280;56857;52.212;5.496;2023-02-18T11:33:24;101851.88;;;11.76;100.00
69630;BME280;56857;52.212;5.496;2023-02-18T11:35:55;101853.91;;;11.64;100.00
69630;BME280;56857;52.212;5.496;2023-02-18T11:38:44;101855.81;;;11.54;100.00
69630;BME280;56857;52.212;5.496;2023-02-18T11:41:14;101868.47;;;11.42;100.00
69630;BME280;56857;52.212;5.496;2023-02-18T11:43:44;101847.31;;;11.32;100.00
69630;BME280;56857;52.212;5.496;2023-02-18T11:46:13;101849.56;;;11.27;100.00
69630;BME280;56857;52.212;5.496;2023-02-18T11:48:40;101861.28;;;11.25;100.00
69630;BME280;56857;52.212;5.496;2023-02-18T11:51:16;101852.13;;;11.19;100.00
69630;BME280;56857;52.212;5.496;2023-02-18T11:54:00;101845.31;;;11.17;100.00
69630;BME280;56857;52.212;5.496;2023-02-18T11:56:30;101855.38;;;11.13;100.00
69630;BME280;56857;52.212;5.496;2023-02-18T11:58:56;101852.16;;;11.09;100.00
69630;BME280;56857;52.212;5.496;2023-02-18T12:06:32;101853.91;;;11.01;100.00
69630;BME280;56857;52.212;5.496;2023-02-18T12:09:18;101841.75;;;10.98;100.00
69630;BME280;56857;52.212;5.496;2023-02-18T12:11:50;101848.72;;;10.99;100.00
69630;BME280;56857;52.212;5.496;2023-02-18T12:14:20;101836.28;;;11.00;100.00
69630;BME280;56857;52.212;5.496;2023-02-18T12:27:36;101843.28;;;11.01;100.00
69630;BME280;56857;52.212;5.496;2023-02-18T12:36:01;101840.72;;;11.09;100.00
69630;BME280;56857;52.212;5.496;2023-02-18T12:42:03;101838.69;;;11.21;100.00
69630;BME280;56857;52.212;5.496;2023-02-18T12:44:40;101836.75;;;11.23;100.00
69630;BME280;56857;52.212;5.496;2023-02-18T13:17:29;101850.03;;;11.41;100.00
69630;BME280;56857;52.212;5.496;2023-02-18T13:19:58;101864.00;;;11.43;100.00
69630;BME280;56857;52.212;5.496;2023-02-18T13:22:28;101858.81;;;11.41;100.00
69630;BME280;56857;52.212;5.496;2023-02-18T13:24:56;101865.41;;;11.37;100.00
69630;BME280;56857;52.212;5.496;2023-02-18T13:33:46;101862.53;;;11.30;100.00
69630;BME280;56857;52.212;5.496;2023-02-18T13:41:34;101854.03;;;11.27;100.00
69630;BME280;56857;52.212;5.496;2023-02-18T13:44:00;101854.03;;;11.27;100.00
69630;BME280;56857;52.212;5.496;2023-02-18T13:46:26;101858.50;;;11.26;100.00
69630;BME280;56857;52.212;5.496;2023-02-18T13:51:36;101861.00;;;11.28;100.00
69630;BME280;56857;52.212;5.496;2023-02-18T13:57:01;101865.06;;;11.32;100.00
69630;BME280;56857;52.212;5.496;2023-02-18T13:59:40;101870.06;;;11.35;100.00
69630;BME280;56857;52.212;5.496;2023-02-18T14:09:52;101876.22;;;11.53;100.00
69630;BME280;56857;52.212;5.496;2023-02-18T14:12:40;101871.97;;;11.60;100.00
69630;BME280;56857;52.212;5.496;2023-02-18T14:28:38;101882.38;;;11.72;100.00
69630;BME280;56857;52.212;5.496;2023-02-18T14:33:38;101887.53;;;11.73;100.00
69630;BME280;56857;52.212;5.496;2023-02-18T14:39:12;101886.84;;;11.71;100.00
69630;BME280;56857;52.212;5.496;2023-02-18T14:42:38;101874.56;;;11.70;100.00
69630;BME280;56857;52.212;5.496;2023-02-18T14:47:16;101892.03;;;11.73;100.00
69630;BME280;56857;52.212;5.496;2023-02-18T14:49:56;101881.53;;;11.71;100.00
69630;BME280;56857;52.212;5.496;2023-02-18T14:52:39;101878.75;;;11.73;100.00
69630;BME280;56857;52.212;5.496;2023-02-18T14:55:16;101875.22;;;11.72;100.00
69630;BME280;56857;52.212;5.496;2023-02-18T14:57:51;101882.22;;;11.73;100.00
69630;BME280;56857;52.212;5.496;2023-02-18T15:00:23;101891.03;;;11.74;100.00
69630;BME280;56857;52.212;5.496;2023-02-18T15:02:53;101894.69;;;11.73;100.00
69630;BME280;56857;52.212;5.496;2023-02-18T15:05:26;101880.25;;;11.75;100.00
69630;BME280;56857;52.212;5.496;2023-02-18T15:07:59;101883.06;;;11.74;100.00
69630;BME280;56857;52.212;5.496;2023-02-18T15:10:35;101890.19;;;11.73;100.00
69630;BME280;56857;52.212;5.496;2023-02-18T15:13:04;101889.38;;;11.73;100.00
69630;BME280;56857;52.212;5.496;2023-02-18T15:15:32;101889.38;;;11.73;100.00
69630;BME280;56857;52.212;5.496;2023-02-18T15:17:58;101896.34;;;11.74;100.00
69630;BME280;56857;52.212;5.496;2023-02-18T15:20:23;101893.81;;;11.72;100.00
69630;BME280;56857;52.212;5.496;2023-02-18T15:22:48;101884.06;;;11.73;100.00
69630;BME280;56857;52.212;5.496;2023-02-18T15:25:15;101889.50;;;11.71;100.00
69630;BME280;56857;52.212;5.496;2023-02-18T15:27:43;101887.31;;;11.67;100.00
69630;BME280;56857;52.212;5.496;2023-02-18T15:30:28;101888.16;;;11.67;100.00
69630;BME280;56857;52.212;5.496;2023-02-18T15:32:58;101892.34;;;11.70;100.00
69630;BME280;56857;52.212;5.496;2023-02-18T15:35:31;101903.78;;;11.70;100.00